createdAt,value
2019-06-26T00:01:37.190Z,25.10
2019-06-26T00:06:40.850Z,25.00
2019-06-26T00:11:44.555Z,24.80
2019-06-26T00:16:50.221Z,24.80
2019-06-26T00:22:06.845Z,24.70
2019-06-26T00:27:11.457Z,24.50
2019-06-26T00:32:16.601Z,24.30
2019-06-26T00:37:24.908Z,24.20
2019-06-26T00:42:28.660Z,24.10
2019-06-26T00:47:32.700Z,24.00
2019-06-26T00:52:36.403Z,23.90
2019-06-26T00:57:58.352Z,23.80
2019-06-26T01:03:02.086Z,23.70
2019-06-26T01:08:05.768Z,23.60
2019-06-26T01:13:15.108Z,23.50
2019-06-26T01:18:18.819Z,23.40
2019-06-26T01:23:25.139Z,23.30
2019-06-26T01:28:28.784Z,23.20
2019-06-26T01:33:33.462Z,23.10
2019-06-26T01:38:38.086Z,23.00
2019-06-26T01:43:42.881Z,22.90
2019-06-26T01:48:46.647Z,22.80
2019-06-26T01:54:00.729Z,22.80
2019-06-26T01:59:12.493Z,22.70
2019-06-26T02:04:16.102Z,22.60
2019-06-26T02:09:19.874Z,22.50
2019-06-26T02:14:31.679Z,22.40
2019-06-26T02:19:37.397Z,22.40
2019-06-26T02:24:43.200Z,22.30
2019-06-26T02:29:55.476Z,22.20
2019-06-26T02:35:09.655Z,22.20
2019-06-26T02:40:14.688Z,22.10
2019-06-26T02:45:18.346Z,22.00
2019-06-26T02:50:24.541Z,21.90
2019-06-26T02:55:28.292Z,21.80
2019-06-26T03:00:32.018Z,21.80
2019-06-26T03:05:39.737Z,21.70
2019-06-26T03:10:46.479Z,21.70
2019-06-26T03:15:53.166Z,21.60
2019-06-26T03:20:57.912Z,21.60
2019-06-26T03:26:01.661Z,21.60
2019-06-26T03:31:05.416Z,21.50
2019-06-26T03:36:09.055Z,21.50
2019-06-26T03:41:20.915Z,21.50
2019-06-26T03:46:25.539Z,21.50
2019-06-26T03:51:31.251Z,21.50
2019-06-26T03:56:35.002Z,21.50
2019-06-26T04:01:38.679Z,21.40
2019-06-26T04:06:42.368Z,21.30
2019-06-26T04:11:46.066Z,21.20
2019-06-26T04:16:56.474Z,21.20
2019-06-26T04:22:00.143Z,21.20
2019-06-26T04:27:04.014Z,21.20
2019-06-26T04:32:07.770Z,21.10
2019-06-26T04:37:13.389Z,21.10
2019-06-26T04:42:16.966Z,21.10
2019-06-26T04:47:22.623Z,21.10
2019-06-26T04:52:27.250Z,21.00
2019-06-26T04:57:31.002Z,21.00
2019-06-26T05:02:43.570Z,21.00
2019-06-26T05:07:47.206Z,21.00
2019-06-26T05:12:51.111Z,21.00
2019-06-26T05:17:54.836Z,20.90
2019-06-26T05:23:05.467Z,20.90
2019-06-26T05:28:09.248Z,20.90
2019-06-26T05:33:12.756Z,20.90
2019-06-26T05:38:16.251Z,20.90
2019-06-26T05:43:19.979Z,20.90
2019-06-26T05:48:23.538Z,20.90
2019-06-26T05:53:27.104Z,20.90
2019-06-26T05:58:30.736Z,20.90
2019-06-26T06:03:36.018Z,20.90
2019-06-26T06:08:41.201Z,20.90
2019-06-26T06:13:46.324Z,20.90
2019-06-26T06:18:49.820Z,21.00
2019-06-26T06:23:53.377Z,20.90
2019-06-26T06:28:56.890Z,20.90
2019-06-26T06:34:00.619Z,21.00
2019-06-26T06:39:05.977Z,21.00
2019-06-26T06:44:09.503Z,21.00
2019-06-26T06:49:13.298Z,21.00
2019-06-26T06:54:16.818Z,21.10
2019-06-26T06:59:22.186Z,21.10
2019-06-26T07:04:25.706Z,21.10
2019-06-26T07:09:29.215Z,21.20
2019-06-26T07:14:32.755Z,21.20
2019-06-26T07:19:36.337Z,21.20
2019-06-26T07:24:39.857Z,21.30
2019-06-26T07:29:43.404Z,21.30
2019-06-26T07:34:46.930Z,21.30
2019-06-26T07:39:50.441Z,21.30
2019-06-26T07:44:54.057Z,21.40
2019-06-26T07:49:59.338Z,21.50
2019-06-26T07:55:02.934Z,21.50
2019-06-26T08:00:07.325Z,21.60
2019-06-26T08:05:11.925Z,21.70
2019-06-26T08:10:15.936Z,21.70
2019-06-26T08:15:19.925Z,21.70
2019-06-26T08:20:23.455Z,21.80
2019-06-26T08:25:27.130Z,21.80
2019-06-26T08:30:30.749Z,21.90
2019-06-26T08:35:34.362Z,22.00
2019-06-26T08:40:52.883Z,22.10
2019-06-26T08:46:17.853Z,22.20
2019-06-26T08:51:25.102Z,22.30
2019-06-26T08:56:28.666Z,22.30
2019-06-26T09:01:32.255Z,22.40
2019-06-26T09:06:35.873Z,22.40
2019-06-26T09:11:40.320Z,22.40
2019-06-26T09:16:45.506Z,22.40
2019-06-26T09:22:00.848Z,22.40
2019-06-26T09:27:04.849Z,22.50
2019-06-26T09:32:08.543Z,22.50
2019-06-26T09:37:12.360Z,22.50
2019-06-26T09:42:19.386Z,22.50
2019-06-26T09:47:21.256Z,22.60
2019-06-26T09:52:25.815Z,22.60
2019-06-26T09:57:46.653Z,22.60
2019-06-26T10:02:56.236Z,22.60
2019-06-26T10:07:59.865Z,22.70
2019-06-26T10:13:03.617Z,22.80
2019-06-26T10:18:07.385Z,22.80
2019-06-26T10:23:13.030Z,23.00
2019-06-26T10:28:16.694Z,23.00
2019-06-26T10:33:26.201Z,23.00
2019-06-26T10:38:29.812Z,23.10
2019-06-26T10:43:35.237Z,23.10
2019-06-26T10:48:38.860Z,23.10
2019-06-26T10:53:42.481Z,23.20
2019-06-26T10:58:47.684Z,23.30
2019-06-26T11:03:52.954Z,23.30
2019-06-26T11:08:56.468Z,23.30
2019-06-26T11:14:00.027Z,23.30
2019-06-26T11:19:04.097Z,23.40
2019-06-26T11:24:09.288Z,23.40
2019-06-26T11:29:12.951Z,23.50
2019-06-26T11:34:16.657Z,23.50
2019-06-26T11:39:20.320Z,23.60
2019-06-26T11:44:37.736Z,23.70
2019-06-26T11:49:41.435Z,23.70
2019-06-26T11:54:58.297Z,23.90
2019-06-26T11:59:50.415Z,24.00
2019-06-26T12:05:26.007Z,24.10
2019-06-26T12:10:21.413Z,24.20
2019-06-26T12:15:29.005Z,24.40
2019-06-26T12:20:34.163Z,24.50
2019-06-26T12:25:40.243Z,24.60
2019-06-26T12:30:48.072Z,24.80
2019-06-26T12:35:50.835Z,24.90
2019-06-26T12:40:54.420Z,25.10
2019-06-26T12:45:57.917Z,25.20
2019-06-26T12:51:01.574Z,25.30
2019-06-26T12:56:09.591Z,25.40
2019-06-26T13:01:13.180Z,25.50
2019-06-26T13:06:16.755Z,25.70
2019-06-26T13:11:20.292Z,25.80
2019-06-26T13:16:25.414Z,25.90
2019-06-26T13:21:28.954Z,26.00
2019-06-26T13:26:32.482Z,26.10
2019-06-26T13:31:36.304Z,26.20
2019-06-26T13:36:40.435Z,26.30
2019-06-26T13:41:43.963Z,26.40
2019-06-26T13:46:52.076Z,26.50
2019-06-26T13:51:56.006Z,26.50
2019-06-26T13:56:59.694Z,26.50
2019-06-26T14:02:04.774Z,26.60
2019-06-26T14:07:13.286Z,26.60
2019-06-26T14:12:19.145Z,26.60
2019-06-26T14:17:25.919Z,26.60
2019-06-26T14:22:32.644Z,26.60
2019-06-26T14:27:36.260Z,26.60
2019-06-26T14:32:39.878Z,26.60
2019-06-26T14:37:45.048Z,26.60
2019-06-26T14:42:48.741Z,26.60
2019-06-26T14:48:00.823Z,26.60
2019-06-26T14:53:06.156Z,26.70
2019-06-26T14:58:09.874Z,26.70
2019-06-26T15:03:18.855Z,26.70
2019-06-26T15:08:26.783Z,26.70
2019-06-26T15:13:30.515Z,26.80
2019-06-26T15:18:34.278Z,26.80
2019-06-26T15:23:39.599Z,26.90
2019-06-26T15:28:43.227Z,26.90
2019-06-26T15:33:47.887Z,26.90
2019-06-26T15:38:54.353Z,26.90
2019-06-26T15:43:58.935Z,26.90
2019-06-26T15:49:02.504Z,26.90
2019-06-26T15:54:06.095Z,26.90
2019-06-26T15:59:11.638Z,27.00
2019-06-26T16:04:16.204Z,27.00
2019-06-26T16:09:19.845Z,27.00
2019-06-26T16:14:23.495Z,27.00
2019-06-26T16:19:27.034Z,27.00
2019-06-26T16:24:30.606Z,27.00
2019-06-26T16:29:34.114Z,27.00
2019-06-26T16:34:37.716Z,27.00
2019-06-26T16:39:42.146Z,26.90
2019-06-26T16:44:45.768Z,26.90
2019-06-26T16:49:53.595Z,26.90
2019-06-26T16:54:58.120Z,26.90
2019-06-26T17:00:09.416Z,26.80
2019-06-26T17:05:11.676Z,26.80
2019-06-26T17:10:15.528Z,26.80
2019-06-26T17:15:19.233Z,26.70
2019-06-26T17:20:25.670Z,26.70
2019-06-26T17:25:29.250Z,26.70
2019-06-26T17:30:32.892Z,26.60
2019-06-26T17:35:36.437Z,26.50
2019-06-26T17:40:40.100Z,26.50
2019-06-26T17:45:44.577Z,26.40
2019-06-26T17:50:48.286Z,26.30
2019-06-26T17:55:51.863Z,26.30
2019-06-26T18:00:56.250Z,26.30
2019-06-26T18:06:05.993Z,26.30
2019-06-26T18:11:09.729Z,26.30
2019-06-26T18:16:13.492Z,26.20
2019-06-26T18:21:18.118Z,26.10
2019-06-26T18:26:46.215Z,26.00
2019-06-26T18:31:49.941Z,25.90
2019-06-26T18:36:56.311Z,25.80
2019-06-26T18:42:02.426Z,25.70
2019-06-26T18:47:12.834Z,25.60
2019-06-26T18:52:16.616Z,25.50
2019-06-26T18:57:33.379Z,25.50
2019-06-26T19:02:46.130Z,25.40
2019-06-26T19:07:52.406Z,25.20
2019-06-26T19:13:09.468Z,25.10
2019-06-26T19:18:13.137Z,25.10
2019-06-26T19:23:22.525Z,24.90
2019-06-26T19:28:26.218Z,24.80
2019-06-26T19:33:30.961Z,24.60
2019-06-26T19:38:59.682Z,24.50
2019-06-26T19:44:09.098Z,24.50
2019-06-26T19:49:14.590Z,24.30
2019-06-26T19:54:32.348Z,24.20
2019-06-26T19:59:56.253Z,24.10
2019-06-26T20:05:07.593Z,24.00
2019-06-26T20:10:17.062Z,23.90
2019-06-26T20:15:28.187Z,23.80
2019-06-26T20:20:31.980Z,23.70
2019-06-26T20:25:35.709Z,23.60
2019-06-26T20:30:39.462Z,23.60
2019-06-26T20:35:55.553Z,23.50
2019-06-26T20:41:11.790Z,23.40
2019-06-26T20:46:15.728Z,23.30
2019-06-26T20:51:21.055Z,23.20
2019-06-26T20:56:25.855Z,23.10
2019-06-26T21:01:29.740Z,23.00
2019-06-26T21:06:33.358Z,22.90
2019-06-26T21:11:37.030Z,22.80
2019-06-26T21:16:50.025Z,22.70
2019-06-26T21:21:53.693Z,22.70
2019-06-26T21:26:58.346Z,22.50
2019-06-26T21:32:02.052Z,22.50
2019-06-26T21:37:31.005Z,22.40
2019-06-26T21:42:39.907Z,22.30
2019-06-26T21:47:48.961Z,22.20
2019-06-26T21:52:53.734Z,22.10
2019-06-26T21:58:03.670Z,22.10
2019-06-26T22:03:09.716Z,22.00
2019-06-26T22:08:15.077Z,21.90
2019-06-26T22:13:23.510Z,21.80
2019-06-26T22:18:34.417Z,21.70
2019-06-26T22:23:39.858Z,21.70
2019-06-26T22:28:44.646Z,21.60
2019-06-26T22:33:50.300Z,21.50
2019-06-26T22:38:56.923Z,21.40
2019-06-26T22:44:10.485Z,21.30
2019-06-26T22:49:38.922Z,21.30
2019-06-26T22:54:43.649Z,21.20
2019-06-26T22:59:49.538Z,21.10
2019-06-26T23:04:53.466Z,21.10
2019-06-26T23:10:03.449Z,21.00
2019-06-26T23:15:11.199Z,20.90
2019-06-26T23:20:18.397Z,20.90
2019-06-26T23:25:23.120Z,20.80
2019-06-26T23:30:26.896Z,20.70
2019-06-26T23:35:33.586Z,20.70
2019-06-26T23:40:45.097Z,20.60
2019-06-26T23:45:53.750Z,20.50
2019-06-26T23:50:57.501Z,20.40
2019-06-26T23:56:05.511Z,20.30
